sensor_id;sensor_type;location;lat;lon;timestamp;temperature;humidity
6666;DHT22;3369;49.906;8.598;2022-10-13T00:01:57;9.50;99.90
6666;DHT22;3369;49.906;8.598;2022-10-13T00:04:23;9.50;99.90
6666;DHT22;3369;49.906;8.598;2022-10-13T00:06:48;9.40;99.90
6666;DHT22;3369;49.906;8.598;2022-10-13T00:09:14;9.30;99.90
6666;DHT22;3369;49.906;8.598;2022-10-13T00:11:40;9.30;99.90
6666;DHT22;3369;49.906;8.598;2022-10-13T00:14:05;9.20;99.90
6666;DHT22;3369;49.906;8.598;2022-10-13T00:16:31;9.10;99.90
6666;DHT22;3369;49.906;8.598;2022-10-13T00:18:57;9.00;99.90
6666;DHT22;3369;49.906;8.598;2022-10-13T00:21:24;9.00;99.90
6666;DHT22;3369;49.906;8.598;2022-10-13T00:23:51;8.90;99.90
6666;DHT22;3369;49.906;8.598;2022-10-13T00:26:18;8.90;99.90
6666;DHT22;3369;49.906;8.598;2022-10-13T00:28:44;8.90;99.90
6666;DHT22;3369;49.906;8.598;2022-10-13T00:31:22;8.80;99.90
6666;DHT22;3369;49.906;8.598;2022-10-13T00:33:48;8.90;99.90
6666;DHT22;3369;49.906;8.598;2022-10-13T00:36:14;8.80;99.90
6666;DHT22;3369;49.906;8.598;2022-10-13T00:38:41;8.80;99.90
6666;DHT22;3369;49.906;8.598;2022-10-13T00:41:07;8.80;99.90
6666;DHT22;3369;49.906;8.598;2022-10-13T00:46:24;8.80;99.90
6666;DHT22;3369;49.906;8.598;2022-10-13T00:48:51;8.80;99.90
6666;DHT22;3369;49.906;8.598;2022-10-13T00:51:20;8.90;99.90
6666;DHT22;3369;49.906;8.598;2022-10-13T00:53:47;8.90;99.90
6666;DHT22;3369;49.906;8.598;2022-10-13T00:56:15;8.90;99.90
6666;DHT22;3369;49.906;8.598;2022-10-13T00:58:42;8.90;99.90
6666;DHT22;3369;49.906;8.598;2022-10-13T01:01:08;8.90;99.90
6666;DHT22;3369;49.906;8.598;2022-10-13T01:03:34;9.00;99.90
6666;DHT22;3369;49.906;8.598;2022-10-13T01:06:02;9.00;99.90
6666;DHT22;3369;49.906;8.598;2022-10-13T01:08:29;9.00;99.90
6666;DHT22;3369;49.906;8.598;2022-10-13T01:14:12;9.00;99.90
6666;DHT22;3369;49.906;8.598;2022-10-13T01:30:49;8.90;99.90
6666;DHT22;3369;49.906;8.598;2022-10-13T01:33:28;8.90;99.90
6666;DHT22;3369;49.906;8.598;2022-10-13T01:36:25;8.90;99.90
6666;DHT22;3369;49.906;8.598;2022-10-13T01:39:00;8.90;99.90
6666;DHT22;3369;49.906;8.598;2022-10-13T01:41:34;8.90;99.90
6666;DHT22;3369;49.906;8.598;2022-10-13T01:44:16;8.90;99.90
6666;DHT22;3369;49.906;8.598;2022-10-13T01:46:46;8.90;99.90
6666;DHT22;3369;49.906;8.598;2022-10-13T01:49:15;8.90;99.90
6666;DHT22;3369;49.906;8.598;2022-10-13T01:51:42;8.90;99.90
6666;DHT22;3369;49.906;8.598;2022-10-13T01:54:09;8.90;99.90
6666;DHT22;3369;49.906;8.598;2022-10-13T01:56:34;8.90;99.90
6666;DHT22;3369;49.906;8.598;2022-10-13T01:59:04;8.90;99.90
6666;DHT22;3369;49.906;8.598;2022-10-13T02:01:39;9.00;99.90
6666;DHT22;3369;49.906;8.598;2022-10-13T02:04:09;9.00;99.90
6666;DHT22;3369;49.906;8.598;2022-10-13T02:11:57;9.00;99.90
6666;DHT22;3369;49.906;8.598;2022-10-13T02:14:29;9.10;99.90
6666;DHT22;3369;49.906;8.598;2022-10-13T02:38:07;9.20;99.90
6666;DHT22;3369;49.906;8.598;2022-10-13T02:40:33;9.20;99.90
6666;DHT22;3369;49.906;8.598;2022-10-13T02:42:59;9.10;99.90
6666;DHT22;3369;49.906;8.598;2022-10-13T02:45:24;9.10;99.90
6666;DHT22;3369;49.906;8.598;2022-10-13T02:47:50;9.00;99.90
6666;DHT22;3369;49.906;8.598;2022-10-13T02:50:16;8.90;99.90
6666;DHT22;3369;49.906;8.598;2022-10-13T02:52:41;8.80;99.90
6666;DHT22;3369;49.906;8.598;2022-10-13T02:55:07;8.80;99.90
6666;DHT22;3369;49.906;8.598;2022-10-13T02:57:33;8.70;99.90
6666;DHT22;3369;49.906;8.598;2022-10-13T02:59:59;8.70;99.90
6666;DHT22;3369;49.906;8.598;2022-10-13T03:02:27;8.70;99.90
6666;DHT22;3369;49.906;8.598;2022-10-13T03:04:53;8.60;99.90
6666;DHT22;3369;49.906;8.598;2022-10-13T03:07:19;8.60;99.90
6666;DHT22;3369;49.906;8.598;2022-10-13T03:13:00;8.70;99.90
6666;DHT22;3369;49.906;8.598;2022-10-13T03:15:26;8.70;99.90
6666;DHT22;3369;49.906;8.598;2022-10-13T03:17:52;8.70;99.90
6666;DHT22;3369;49.906;8.598;2022-10-13T03:20:17;8.70;99.90
6666;DHT22;3369;49.906;8.598;2022-10-13T03:22:43;8.70;99.90
6666;DHT22;3369;49.906;8.598;2022-10-13T03:25:08;8.70;99.90
6666;DHT22;3369;49.906;8.598;2022-10-13T03:27:34;8.70;99.90
6666;DHT22;3369;49.906;8.598;2022-10-13T03:30:00;8.80;99.90
6666;DHT22;3369;49.906;8.598;2022-10-13T03:32:28;8.80;99.90
6666;DHT22;3369;49.906;8.598;2022-10-13T03:34:54;8.80;99.90
6666;DHT22;3369;49.906;8.598;2022-10-13T03:37:19;8.80;99.90
6666;DHT22;3369;49.906;8.598;2022-10-13T03:39:45;8.80;99.90
6666;DHT22;3369;49.906;8.598;2022-10-13T03:42:10;8.90;99.90
6666;DHT22;3369;49.906;8.598;2022-10-13T03:44:36;8.90;99.90
6666;DHT22;3369;49.906;8.598;2022-10-13T03:47:02;9.00;99.90
6666;DHT22;3369;49.906;8.598;2022-10-13T03:49:27;9.00;99.90
6666;DHT22;3369;49.906;8.598;2022-10-13T03:51:53;9.00;99.90
6666;DHT22;3369;49.906;8.598;2022-10-13T03:54:18;9.00;99.90
6666;DHT22;3369;49.906;8.598;2022-10-13T03:56:44;9.00;99.90
6666;DHT22;3369;49.906;8.598;2022-10-13T03:59:11;9.00;99.90
6666;DHT22;3369;49.906;8.598;2022-10-13T04:01:38;9.10;99.90
6666;DHT22;3369;49.906;8.598;2022-10-13T04:04:04;9.10;99.90
6666;DHT22;3369;49.906;8.598;2022-10-13T04:06:30;9.10;99.90
6666;DHT22;3369;49.906;8.598;2022-10-13T04:08:58;9.10;99.90
6666;DHT22;3369;49.906;8.598;2022-10-13T04:11:24;9.20;99.90
6666;DHT22;3369;49.906;8.598;2022-10-13T04:13:50;9.20;99.90
6666;DHT22;3369;49.906;8.598;2022-10-13T04:16:21;9.20;99.90
6666;DHT22;3369;49.906;8.598;2022-10-13T04:18:53;9.20;99.90
6666;DHT22;3369;49.906;8.598;2022-10-13T04:21:20;9.20;99.90
6666;DHT22;3369;49.906;8.598;2022-10-13T04:23:46;9.20;99.90
6666;DHT22;3369;49.906;8.598;2022-10-13T04:26:17;9.20;99.90
6666;DHT22;3369;49.906;8.598;2022-10-13T04:28:44;9.30;99.90
6666;DHT22;3369;49.906;8.598;2022-10-13T04:31:09;9.30;99.90
6666;DHT22;3369;49.906;8.598;2022-10-13T04:33:35;9.30;99.90
6666;DHT22;3369;49.906;8.598;2022-10-13T04:36:05;9.30;99.90
6666;DHT22;3369;49.906;8.598;2022-10-13T04:38:31;9.30;99.90
6666;DHT22;3369;49.906;8.598;2022-10-13T04:44:19;9.40;99.90
6666;DHT22;3369;49.906;8.598;2022-10-13T04:46:44;9.40;99.90
6666;DHT22;3369;49.906;8.598;2022-10-13T04:49:10;9.40;99.90
6666;DHT22;3369;49.906;8.598;2022-10-13T04:51:35;9.40;99.90
6666;DHT22;3369;49.906;8.598;2022-10-13T04:54:02;9.40;99.90
6666;DHT22;3369;49.906;8.598;2022-10-13T04:56:30;9.40;99.90
6666;DHT22;3369;49.906;8.598;2022-10-13T04:58:56;9.50;99.90
6666;DHT22;3369;49.906;8.598;2022-10-13T05:01:23;9.40;99.90
6666;DHT22;3369;49.906;8.598;2022-10-13T05:04:00;9.40;99.90
6666;DHT22;3369;49.906;8.598;2022-10-13T05:06:29;9.40;99.90
6666;DHT22;3369;49.906;8.598;2022-10-13T05:08:55;9.40;99.90
6666;DHT22;3369;49.906;8.598;2022-10-13T05:11:21;9.30;99.90
6666;DHT22;3369;49.906;8.598;2022-10-13T05:13:48;9.20;99.90
6666;DHT22;3369;49.906;8.598;2022-10-13T05:16:15;9.10;99.90
6666;DHT22;3369;49.906;8.598;2022-10-13T05:18:41;9.10;99.90
6666;DHT22;3369;49.906;8.598;2022-10-13T05:21:15;9.00;99.90
6666;DHT22;3369;49.906;8.598;2022-10-13T05:23:41;8.90;99.90
6666;DHT22;3369;49.906;8.598;2022-10-13T05:26:09;8.90;99.90
6666;DHT22;3369;49.906;8.598;2022-10-13T05:28:36;8.90;99.90
6666;DHT22;3369;49.906;8.598;2022-10-13T05:31:22;8.90;99.90
6666;DHT22;3369;49.906;8.598;2022-10-13T05:33:49;8.90;99.90
6666;DHT22;3369;49.906;8.598;2022-10-13T05:36:21;8.90;99.90
6666;DHT22;3369;49.906;8.598;2022-10-13T05:38:55;8.90;99.90
6666;DHT22;3369;49.906;8.598;2022-10-13T05:41:23;8.90;99.90
6666;DHT22;3369;49.906;8.598;2022-10-13T05:43:51;8.80;99.90
6666;DHT22;3369;49.906;8.598;2022-10-13T05:46:17;8.80;99.90
6666;DHT22;3369;49.906;8.598;2022-10-13T05:48:43;8.80;99.90
6666;DHT22;3369;49.906;8.598;2022-10-13T05:51:29;8.80;99.90
6666;DHT22;3369;49.906;8.598;2022-10-13T05:54:35;8.80;99.90
6666;DHT22;3369;49.906;8.598;2022-10-13T05:57:17;8.80;99.90
6666;DHT22;3369;49.906;8.598;2022-10-13T05:59:52;8.80;99.90
6666;DHT22;3369;49.906;8.598;2022-10-13T06:02:21;8.80;99.90
6666;DHT22;3369;49.906;8.598;2022-10-13T06:04:49;8.70;99.90
6666;DHT22;3369;49.906;8.598;2022-10-13T06:07:16;8.70;99.90
6666;DHT22;3369;49.906;8.598;2022-10-13T06:09:42;8.70;99.90
6666;DHT22;3369;49.906;8.598;2022-10-13T06:12:08;8.70;99.90
6666;DHT22;3369;49.906;8.598;2022-10-13T06:14:36;8.70;99.90
6666;DHT22;3369;49.906;8.598;2022-10-13T06:17:01;8.70;99.90
6666;DHT22;3369;49.906;8.598;2022-10-13T06:19:27;8.70;99.90
6666;DHT22;3369;49.906;8.598;2022-10-13T06:21:53;8.70;99.90
6666;DHT22;3369;49.906;8.598;2022-10-13T06:24:18;8.70;99.90
6666;DHT22;3369;49.906;8.598;2022-10-13T06:26:44;8.70;99.90
6666;DHT22;3369;49.906;8.598;2022-10-13T06:29:10;8.70;99.90
6666;DHT22;3369;49.906;8.598;2022-10-13T06:31:35;8.80;99.90
6666;DHT22;3369;49.906;8.598;2022-10-13T06:34:01;8.80;99.90
6666;DHT22;3369;49.906;8.598;2022-10-13T06:36:27;8.80;99.90
6666;DHT22;3369;49.906;8.598;2022-10-13T06:38:52;8.90;99.90
6666;DHT22;3369;49.906;8.598;2022-10-13T06:41:18;8.90;99.90
6666;DHT22;3369;49.906;8.598;2022-10-13T06:43:44;9.00;99.90
6666;DHT22;3369;49.906;8.598;2022-10-13T06:46:10;9.00;99.90
6666;DHT22;3369;49.906;8.598;2022-10-13T06:48:36;9.10;99.90
6666;DHT22;3369;49.906;8.598;2022-10-13T06:51:04;9.10;99.90
6666;DHT22;3369;49.906;8.598;2022-10-13T06:53:30;9.20;99.90
6666;DHT22;3369;49.906;8.598;2022-10-13T06:56:01;9.20;99.90
6666;DHT22;3369;49.906;8.598;2022-10-13T06:58:27;9.20;99.90
6666;DHT22;3369;49.906;8.598;2022-10-13T07:00:53;9.30;99.90
6666;DHT22;3369;49.906;8.598;2022-10-13T07:03:19;9.30;99.90
6666;DHT22;3369;49.906;8.598;2022-10-13T07:05:45;9.30;99.90
6666;DHT22;3369;49.906;8.598;2022-10-13T07:08:11;9.40;99.90
6666;DHT22;3369;49.906;8.598;2022-10-13T07:10:38;9.40;99.90
6666;DHT22;3369;49.906;8.598;2022-10-13T07:13:04;9.40;99.90
6666;DHT22;3369;49.906;8.598;2022-10-13T07:15:30;9.50;99.90
6666;DHT22;3369;49.906;8.598;2022-10-13T07:17:55;9.50;99.90
6666;DHT22;3369;49.906;8.598;2022-10-13T07:20:21;9.50;99.90
6666;DHT22;3369;49.906;8.598;2022-10-13T07:22:47;9.50;99.90
6666;DHT22;3369;49.906;8.598;2022-10-13T07:25:13;9.60;99.90
6666;DHT22;3369;49.906;8.598;2022-10-13T07:27:39;9.60;99.90
6666;DHT22;3369;49.906;8.598;2022-10-13T07:30:09;9.70;99.90
6666;DHT22;3369;49.906;8.598;2022-10-13T07:32:35;9.70;99.90
6666;DHT22;3369;49.906;8.598;2022-10-13T07:35:01;9.70;99.90
6666;DHT22;3369;49.906;8.598;2022-10-13T07:37:27;9.80;99.90
6666;DHT22;3369;49.906;8.598;2022-10-13T07:39:53;9.80;99.90
6666;DHT22;3369;49.906;8.598;2022-10-13T07:42:18;9.80;99.90
6666;DHT22;3369;49.906;8.598;2022-10-13T07:44:44;9.80;99.90
6666;DHT22;3369;49.906;8.598;2022-10-13T07:47:10;9.80;99.90
6666;DHT22;3369;49.906;8.598;2022-10-13T07:49:36;9.90;99.90
6666;DHT22;3369;49.906;8.598;2022-10-13T07:52:02;9.90;99.90
6666;DHT22;3369;49.906;8.598;2022-10-13T07:54:27;9.90;99.90
6666;DHT22;3369;49.906;8.598;2022-10-13T07:56:54;9.90;99.90
6666;DHT22;3369;49.906;8.598;2022-10-13T07:59:20;9.90;99.90
6666;DHT22;3369;49.906;8.598;2022-10-13T08:01:46;9.90;99.90
6666;DHT22;3369;49.906;8.598;2022-10-13T08:04:11;9.90;99.90
6666;DHT22;3369;49.906;8.598;2022-10-13T08:06:37;10.00;99.90
6666;DHT22;3369;49.906;8.598;2022-10-13T08:09:03;10.00;99.90
6666;DHT22;3369;49.906;8.598;2022-10-13T08:11:29;10.00;99.90
6666;DHT22;3369;49.906;8.598;2022-10-13T08:13:55;10.00;99.90
6666;DHT22;3369;49.906;8.598;2022-10-13T08:16:28;10.10;99.90
6666;DHT22;3369;49.906;8.598;2022-10-13T08:18:56;10.10;99.90
6666;DHT22;3369;49.906;8.598;2022-10-13T08:21:22;10.10;99.90
6666;DHT22;3369;49.906;8.598;2022-10-13T08:23:48;10.10;99.90
6666;DHT22;3369;49.906;8.598;2022-10-13T08:26:19;10.10;99.90
6666;DHT22;3369;49.906;8.598;2022-10-13T08:28:46;10.20;99.90
6666;DHT22;3369;49.906;8.598;2022-10-13T08:31:11;10.20;99.90
6666;DHT22;3369;49.906;8.598;2022-10-13T08:33:37;10.20;99.90
6666;DHT22;3369;49.906;8.598;2022-10-13T08:36:03;10.30;99.90
6666;DHT22;3369;49.906;8.598;2022-10-13T08:38:28;10.30;99.90
6666;DHT22;3369;49.906;8.598;2022-10-13T08:40:54;10.30;99.90
6666;DHT22;3369;49.906;8.598;2022-10-13T08:43:22;10.40;99.90
6666;DHT22;3369;49.906;8.598;2022-10-13T08:45:51;10.40;99.90
6666;DHT22;3369;49.906;8.598;2022-10-13T08:48:20;10.40;99.90
6666;DHT22;3369;49.906;8.598;2022-10-13T08:50:49;10.50;99.90
6666;DHT22;3369;49.906;8.598;2022-10-13T08:53:37;10.50;99.90
6666;DHT22;3369;49.906;8.598;2022-10-13T08:58:32;10.50;99.90
6666;DHT22;3369;49.906;8.598;2022-10-13T09:06:24;10.60;99.90
6666;DHT22;3369;49.906;8.598;2022-10-13T09:08:57;10.70;99.90
6666;DHT22;3369;49.906;8.598;2022-10-13T09:11:28;10.70;99.90
6666;DHT22;3369;49.906;8.598;2022-10-13T09:13:56;10.70;99.90
6666;DHT22;3369;49.906;8.598;2022-10-13T09:16:34;10.70;99.90
6666;DHT22;3369;49.906;8.598;2022-10-13T09:19:31;10.80;99.90
6666;DHT22;3369;49.906;8.598;2022-10-13T09:27:55;10.80;99.90
6666;DHT22;3369;49.906;8.598;2022-10-13T09:30:34;10.90;99.90
6666;DHT22;3369;49.906;8.598;2022-10-13T09:33:21;10.90;99.90
6666;DHT22;3369;49.906;8.598;2022-10-13T09:38:26;10.90;99.90
6666;DHT22;3369;49.906;8.598;2022-10-13T09:51:46;11.10;99.90
6666;DHT22;3369;49.906;8.598;2022-10-13T09:57:30;11.10;99.90
6666;DHT22;3369;49.906;8.598;2022-10-13T10:02:44;11.20;99.90
6666;DHT22;3369;49.906;8.598;2022-10-13T10:05:48;11.20;99.90
6666;DHT22;3369;49.906;8.598;2022-10-13T10:09:15;11.30;99.90
6666;DHT22;3369;49.906;8.598;2022-10-13T10:11:17;11.30;99.90
6666;DHT22;3369;49.906;8.598;2022-10-13T10:13:43;11.30;99.90
6666;DHT22;3369;49.906;8.598;2022-10-13T10:18:51;11.40;99.90
6666;DHT22;3369;49.906;8.598;2022-10-13T10:26:54;11.40;99.90
6666;DHT22;3369;49.906;8.598;2022-10-13T10:29:52;11.40;99.90
6666;DHT22;3369;49.906;8.598;2022-10-13T10:32:32;11.40;99.90
6666;DHT22;3369;49.906;8.598;2022-10-13T10:37:50;11.40;99.90
6666;DHT22;3369;49.906;8.598;2022-10-13T10:45:38;11.50;99.90
6666;DHT22;3369;49.906;8.598;2022-10-13T10:48:30;11.50;99.90
6666;DHT22;3369;49.906;8.598;2022-10-13T10:50:53;11.50;99.90
6666;DHT22;3369;49.906;8.598;2022-10-13T10:53:43;11.50;99.90
6666;DHT22;3369;49.906;8.598;2022-10-13T10:56:32;11.60;99.90
6666;DHT22;3369;49.906;8.598;2022-10-13T11:02:26;11.70;99.90
6666;DHT22;3369;49.906;8.598;2022-10-13T11:04:59;11.80;99.90
6666;DHT22;3369;49.906;8.598;2022-10-13T11:17:20;12.30;99.90
6666;DHT22;3369;49.906;8.598;2022-10-13T11:19:51;12.40;99.90
6666;DHT22;3369;49.906;8.598;2022-10-13T11:22:29;12.40;99.90
6666;DHT22;3369;49.906;8.598;2022-10-13T11:25:00;12.50;99.90
6666;DHT22;3369;49.906;8.598;2022-10-13T11:27:37;12.60;99.90
6666;DHT22;3369;49.906;8.598;2022-10-13T11:30:37;12.70;99.90
6666;DHT22;3369;49.906;8.598;2022-10-13T11:32:51;12.70;99.90
6666;DHT22;3369;49.906;8.598;2022-10-13T11:35:25;12.80;99.90
6666;DHT22;3369;49.906;8.598;2022-10-13T11:41:06;12.90;99.90
6666;DHT22;3369;49.906;8.598;2022-10-13T11:43:17;12.90;99.90
6666;DHT22;3369;49.906;8.598;2022-10-13T11:47:01;13.00;99.90
6666;DHT22;3369;49.906;8.598;2022-10-13T11:48:57;13.00;99.90
6666;DHT22;3369;49.906;8.598;2022-10-13T11:56:55;13.10;99.90
6666;DHT22;3369;49.906;8.598;2022-10-13T11:59:30;13.10;99.90
6666;DHT22;3369;49.906;8.598;2022-10-13T12:01:58;13.10;99.90
6666;DHT22;3369;49.906;8.598;2022-10-13T12:04:26;13.10;99.90
6666;DHT22;3369;49.906;8.598;2022-10-13T12:07:11;13.10;99.90
6666;DHT22;3369;49.906;8.598;2022-10-13T12:09:48;13.20;99.90
6666;DHT22;3369;49.906;8.598;2022-10-13T12:12:16;13.20;99.90
6666;DHT22;3369;49.906;8.598;2022-10-13T12:14:45;13.30;99.90
6666;DHT22;3369;49.906;8.598;2022-10-13T12:19:52;13.40;99.90
6666;DHT22;3369;49.906;8.598;2022-10-13T12:22:19;13.50;99.90
6666;DHT22;3369;49.906;8.598;2022-10-13T12:24:56;13.50;99.90
6666;DHT22;3369;49.906;8.598;2022-10-13T12:27:23;13.50;99.90
6666;DHT22;3369;49.906;8.598;2022-10-13T12:29:49;13.60;99.90
6666;DHT22;3369;49.906;8.598;2022-10-13T12:32:22;13.60;99.90
6666;DHT22;3369;49.906;8.598;2022-10-13T12:34:48;13.60;99.90
6666;DHT22;3369;49.906;8.598;2022-10-13T12:37:27;13.70;99.90
6666;DHT22;3369;49.906;8.598;2022-10-13T12:39:56;13.70;99.90
6666;DHT22;3369;49.906;8.598;2022-10-13T12:42:33;13.70;99.90
6666;DHT22;3369;49.906;8.598;2022-10-13T12:45:00;13.80;99.90
6666;DHT22;3369;49.906;8.598;2022-10-13T12:50:22;13.90;99.90
6666;DHT22;3369;49.906;8.598;2022-10-13T12:52:52;14.00;99.90
6666;DHT22;3369;49.906;8.598;2022-10-13T12:55:20;14.00;99.90
6666;DHT22;3369;49.906;8.598;2022-10-13T12:57:48;14.00;99.90
6666;DHT22;3369;49.906;8.598;2022-10-13T13:05:41;14.00;99.90
6666;DHT22;3369;49.906;8.598;2022-10-13T13:08:28;14.00;99.90
6666;DHT22;3369;49.906;8.598;2022-10-13T13:10:55;14.00;99.90
6666;DHT22;3369;49.906;8.598;2022-10-13T13:13:22;14.00;99.90
6666;DHT22;3369;49.906;8.598;2022-10-13T13:15:48;13.90;99.90
6666;DHT22;3369;49.906;8.598;2022-10-13T13:18:27;13.90;99.90
6666;DHT22;3369;49.906;8.598;2022-10-13T13:20:54;13.90;99.90
6666;DHT22;3369;49.906;8.598;2022-10-13T13:23:20;13.90;99.90
6666;DHT22;3369;49.906;8.598;2022-10-13T13:28:32;13.90;99.90
6666;DHT22;3369;49.906;8.598;2022-10-13T13:30:58;14.00;99.90
6666;DHT22;3369;49.906;8.598;2022-10-13T13:33:24;13.90;99.90
6666;DHT22;3369;49.906;8.598;2022-10-13T13:35:51;14.00;99.90
6666;DHT22;3369;49.906;8.598;2022-10-13T13:38:16;14.00;99.90
6666;DHT22;3369;49.906;8.598;2022-10-13T13:40:42;14.00;99.90
6666;DHT22;3369;49.906;8.598;2022-10-13T13:43:08;14.00;99.90
6666;DHT22;3369;49.906;8.598;2022-10-13T13:45:34;14.00;99.90
6666;DHT22;3369;49.906;8.598;2022-10-13T13:48:00;14.10;99.90
6666;DHT22;3369;49.906;8.598;2022-10-13T13:50:34;14.10;99.90
6666;DHT22;3369;49.906;8.598;2022-10-13T13:53:00;14.10;99.90
6666;DHT22;3369;49.906;8.598;2022-10-13T13:55:27;14.00;99.90
6666;DHT22;3369;49.906;8.598;2022-10-13T13:57:54;14.10;99.90
6666;DHT22;3369;49.906;8.598;2022-10-13T14:00:20;14.10;99.90
6666;DHT22;3369;49.906;8.598;2022-10-13T14:02:46;14.10;99.90
6666;DHT22;3369;49.906;8.598;2022-10-13T14:05:12;14.10;99.90
6666;DHT22;3369;49.906;8.598;2022-10-13T14:07:38;14.20;99.90
6666;DHT22;3369;49.906;8.598;2022-10-13T14:10:05;14.20;99.90
6666;DHT22;3369;49.906;8.598;2022-10-13T14:12:32;14.20;99.90
6666;DHT22;3369;49.906;8.598;2022-10-13T14:14:58;14.20;99.90
6666;DHT22;3369;49.906;8.598;2022-10-13T14:17:25;14.20;99.90
6666;DHT22;3369;49.906;8.598;2022-10-13T14:19:50;14.20;99.90
6666;DHT22;3369;49.906;8.598;2022-10-13T14:22:16;14.20;99.90
6666;DHT22;3369;49.906;8.598;2022-10-13T14:24:42;14.20;99.90
6666;DHT22;3369;49.906;8.598;2022-10-13T14:27:08;14.20;99.90
6666;DHT22;3369;49.906;8.598;2022-10-13T14:29:34;14.20;99.90
6666;DHT22;3369;49.906;8.598;2022-10-13T14:32:00;14.20;99.90
6666;DHT22;3369;49.906;8.598;2022-10-13T14:53:50;14.20;99.90
6666;DHT22;3369;49.906;8.598;2022-10-13T14:56:22;14.20;99.90
6666;DHT22;3369;49.906;8.598;2022-10-13T14:58:51;14.30;99.90
6666;DHT22;3369;49.906;8.598;2022-10-13T15:01:17;14.30;99.90
6666;DHT22;3369;49.906;8.598;2022-10-13T15:03:43;14.30;99.90
6666;DHT22;3369;49.906;8.598;2022-10-13T15:06:16;14.30;99.90
6666;DHT22;3369;49.906;8.598;2022-10-13T15:08:43;14.30;99.90
6666;DHT22;3369;49.906;8.598;2022-10-13T15:11:09;14.30;99.90
6666;DHT22;3369;49.906;8.598;2022-10-13T15:13:35;14.30;99.90
6666;DHT22;3369;49.906;8.598;2022-10-13T15:16:00;14.30;99.90
6666;DHT22;3369;49.906;8.598;2022-10-13T15:18:27;14.30;99.90
6666;DHT22;3369;49.906;8.598;2022-10-13T15:20:53;14.30;99.90
6666;DHT22;3369;49.906;8.598;2022-10-13T15:23:19;14.30;99.90
6666;DHT22;3369;49.906;8.598;2022-10-13T15:25:56;14.30;99.90
6666;DHT22;3369;49.906;8.598;2022-10-13T15:28:23;14.30;99.90
6666;DHT22;3369;49.906;8.598;2022-10-13T15:30:49;14.30;99.90
6666;DHT22;3369;49.906;8.598;2022-10-13T15:33:15;14.30;99.90
6666;DHT22;3369;49.906;8.598;2022-10-13T15:35:40;14.30;99.90
6666;DHT22;3369;49.906;8.598;2022-10-13T15:38:06;14.30;99.90
6666;DHT22;3369;49.906;8.598;2022-10-13T15:40:32;14.30;99.90
6666;DHT22;3369;49.906;8.598;2022-10-13T15:43:01;14.30;99.90
6666;DHT22;3369;49.906;8.598;2022-10-13T15:45:26;14.30;99.90
6666;DHT22;3369;49.906;8.598;2022-10-13T15:47:52;14.30;99.90
6666;DHT22;3369;49.906;8.598;2022-10-13T15:50:18;14.30;99.90
6666;DHT22;3369;49.906;8.598;2022-10-13T15:52:44;14.30;99.90
6666;DHT22;3369;49.906;8.598;2022-10-13T15:55:11;14.30;99.90
6666;DHT22;3369;49.906;8.598;2022-10-13T15:57:37;14.30;99.90
6666;DHT22;3369;49.906;8.598;2022-10-13T16:00:04;14.30;99.90
6666;DHT22;3369;49.906;8.598;2022-10-13T16:02:31;14.30;99.90
6666;DHT22;3369;49.906;8.598;2022-10-13T16:04:56;14.30;99.90
6666;DHT22;3369;49.906;8.598;2022-10-13T16:07:23;14.20;99.90
6666;DHT22;3369;49.906;8.598;2022-10-13T16:09:48;14.20;99.90
6666;DHT22;3369;49.906;8.598;2022-10-13T16:12:14;14.20;99.90
6666;DHT22;3369;49.906;8.598;2022-10-13T16:14:40;14.20;99.90
6666;DHT22;3369;49.906;8.598;2022-10-13T16:17:06;14.20;99.90
6666;DHT22;3369;49.906;8.598;2022-10-13T16:19:31;14.10;99.90
6666;DHT22;3369;49.906;8.598;2022-10-13T16:21:57;14.10;99.90
6666;DHT22;3369;49.906;8.598;2022-10-13T16:24:23;14.10;99.90
6666;DHT22;3369;49.906;8.598;2022-10-13T16:26:48;14.10;99.90
6666;DHT22;3369;49.906;8.598;2022-10-13T16:29:14;14.00;99.90
6666;DHT22;3369;49.906;8.598;2022-10-13T16:31:39;14.00;99.90
6666;DHT22;3369;49.906;8.598;2022-10-13T16:34:05;14.00;99.90
6666;DHT22;3369;49.906;8.598;2022-10-13T16:36:31;14.00;99.90
6666;DHT22;3369;49.906;8.598;2022-10-13T16:38:57;14.00;99.90
6666;DHT22;3369;49.906;8.598;2022-10-13T16:41:23;13.90;99.90
6666;DHT22;3369;49.906;8.598;2022-10-13T16:43:49;13.90;99.90
6666;DHT22;3369;49.906;8.598;2022-10-13T16:46:17;13.90;99.90
6666;DHT22;3369;49.906;8.598;2022-10-13T16:48:44;13.90;99.90
6666;DHT22;3369;49.906;8.598;2022-10-13T16:51:22;13.90;99.90
6666;DHT22;3369;49.906;8.598;2022-10-13T16:53:57;13.90;99.90
6666;DHT22;3369;49.906;8.598;2022-10-13T16:56:25;13.90;99.90
6666;DHT22;3369;49.906;8.598;2022-10-13T16:58:55;13.80;99.90
6666;DHT22;3369;49.906;8.598;2022-10-13T17:01:21;13.80;99.90
6666;DHT22;3369;49.906;8.598;2022-10-13T17:03:48;13.80;99.90
6666;DHT22;3369;49.906;8.598;2022-10-13T17:06:15;13.80;99.90
6666;DHT22;3369;49.906;8.598;2022-10-13T17:08:42;13.80;99.90
6666;DHT22;3369;49.906;8.598;2022-10-13T17:11:19;13.70;99.90
6666;DHT22;3369;49.906;8.598;2022-10-13T17:13:46;13.70;99.90
6666;DHT22;3369;49.906;8.598;2022-10-13T17:16:12;13.70;99.90
6666;DHT22;3369;49.906;8.598;2022-10-13T17:18:38;13.60;99.90
6666;DHT22;3369;49.906;8.598;2022-10-13T17:21:05;13.60;99.90
6666;DHT22;3369;49.906;8.598;2022-10-13T17:23:35;13.60;99.90
6666;DHT22;3369;49.906;8.598;2022-10-13T17:26:02;13.60;99.90
6666;DHT22;3369;49.906;8.598;2022-10-13T17:28:28;13.60;99.90
6666;DHT22;3369;49.906;8.598;2022-10-13T17:31:02;13.60;99.90
6666;DHT22;3369;49.906;8.598;2022-10-13T17:33:31;13.60;99.90
6666;DHT22;3369;49.906;8.598;2022-10-13T17:35:59;13.60;99.90
6666;DHT22;3369;49.906;8.598;2022-10-13T17:38:25;13.60;99.90
6666;DHT22;3369;49.906;8.598;2022-10-13T17:40:50;13.60;99.90
6666;DHT22;3369;49.906;8.598;2022-10-13T17:43:16;13.60;99.90
6666;DHT22;3369;49.906;8.598;2022-10-13T17:45:42;13.60;99.90
6666;DHT22;3369;49.906;8.598;2022-10-13T17:48:08;13.60;99.90
6666;DHT22;3369;49.906;8.598;2022-10-13T17:50:34;13.60;99.90
6666;DHT22;3369;49.906;8.598;2022-10-13T17:53:00;13.60;99.90
6666;DHT22;3369;49.906;8.598;2022-10-13T17:55:26;13.60;99.90
6666;DHT22;3369;49.906;8.598;2022-10-13T17:57:52;13.50;99.90
6666;DHT22;3369;49.906;8.598;2022-10-13T18:00:17;13.50;99.90
6666;DHT22;3369;49.906;8.598;2022-10-13T18:02:43;13.50;99.90
6666;DHT22;3369;49.906;8.598;2022-10-13T18:05:09;13.50;99.90
6666;DHT22;3369;49.906;8.598;2022-10-13T18:07:35;13.50;99.90
6666;DHT22;3369;49.906;8.598;2022-10-13T18:10:01;13.50;99.90
6666;DHT22;3369;49.906;8.598;2022-10-13T18:12:27;13.50;99.90
6666;DHT22;3369;49.906;8.598;2022-10-13T18:14:52;13.40;99.90
6666;DHT22;3369;49.906;8.598;2022-10-13T18:17:18;13.40;99.90
6666;DHT22;3369;49.906;8.598;2022-10-13T18:19:43;13.50;99.90
6666;DHT22;3369;49.906;8.598;2022-10-13T18:22:09;13.40;99.90
6666;DHT22;3369;49.906;8.598;2022-10-13T18:24:35;13.40;99.90
6666;DHT22;3369;49.906;8.598;2022-10-13T18:27:00;13.40;99.90
6666;DHT22;3369;49.906;8.598;2022-10-13T18:29:26;13.40;99.90
6666;DHT22;3369;49.906;8.598;2022-10-13T18:31:53;13.40;99.90
6666;DHT22;3369;49.906;8.598;2022-10-13T18:34:20;13.40;99.90
6666;DHT22;3369;49.906;8.598;2022-10-13T18:36:48;13.40;99.90
6666;DHT22;3369;49.906;8.598;2022-10-13T18:39:18;13.40;99.90
6666;DHT22;3369;49.906;8.598;2022-10-13T18:41:44;13.40;99.90
6666;DHT22;3369;49.906;8.598;2022-10-13T18:44:10;13.30;99.90
6666;DHT22;3369;49.906;8.598;2022-10-13T18:46:37;13.30;99.90
6666;DHT22;3369;49.906;8.598;2022-10-13T18:49:05;13.40;99.90
6666;DHT22;3369;49.906;8.598;2022-10-13T18:51:31;13.30;99.90
6666;DHT22;3369;49.906;8.598;2022-10-13T18:53:59;13.30;99.90
6666;DHT22;3369;49.906;8.598;2022-10-13T18:56:28;13.30;99.90